Time;durP1;ratioP1;P1;durP2;ratioP2;P2;SDS_P1;SDS_P2;PMS_P1;PMS_P2;Temp;Humidity;BMP_temperature;BMP_pressure;BME280_temperature;BME280_humidity;BME280_pressure;Samples;Min_cycle;Max_cycle;Signal;HPM_P1;HPM_P2
2023/03/02 00:01:38;;;;;;;32.47;17.37;;;3.50;99.90;;;;;;5112388;28;20232;-77
2023/03/02 00:04:06;;;;;;;32.73;17.03;;;3.50;99.90;;;;;;5109147;28;20630;-76
2023/03/02 00:06:35;;;;;;;26.73;16.20;;;3.40;99.90;;;;;;5107594;28;20234;-77
2023/03/02 00:09:03;;;;;;;30.47;16.60;;;3.30;99.90;;;;;;5092494;28;20209;-77
2023/03/02 00:11:30;;;;;;;27.93;16.20;;;3.30;99.90;;;;;;5110310;28;20209;-77
2023/03/02 00:13:56;;;;;;;31.83;17.50;;;3.30;99.90;;;;;;5109309;28;20541;-77
2023/03/02 00:16:22;;;;;;;32.03;17.57;;;3.30;99.90;;;;;;5104647;28;20217;-78
2023/03/02 00:18:48;;;;;;;30.00;16.77;;;3.30;99.90;;;;;;5109243;28;20211;-77
2023/03/02 00:21:13;;;;;;;27.97;16.70;;;3.30;99.90;;;;;;5110044;28;20206;-76
2023/03/02 00:23:39;;;;;;;30.93;17.70;;;3.20;99.90;;;;;;5100311;28;20206;-77
2023/03/02 00:26:05;;;;;;;27.53;15.67;;;3.10;99.90;;;;;;5109276;28;20174;-78
2023/03/02 00:28:31;;;;;;;27.17;15.70;;;3.10;99.90;;;;;;5109933;28;20182;-77
2023/03/02 00:30:57;;;;;;;27.57;15.03;;;3.10;99.90;;;;;;5109033;28;20295;-77
2023/03/02 00:33:22;;;;;;;24.13;14.80;;;3.10;99.90;;;;;;5111558;28;20651;-78
2023/03/02 00:35:48;;;;;;;27.60;15.73;;;3.10;99.90;;;;;;5108104;28;20219;-77
2023/03/02 00:38:14;;;;;;;26.63;16.13;;;3.20;99.90;;;;;;5106044;28;20207;-77
2023/03/02 00:40:45;;;;;;;29.33;15.53;;;3.20;99.90;;;;;;5108335;28;20692;-77
2023/03/02 00:43:11;;;;;;;28.97;15.53;;;3.20;99.90;;;;;;5111716;28;20202;-77
2023/03/02 00:45:37;;;;;;;24.20;14.33;;;3.20;99.90;;;;;;5108171;28;20207;-77
2023/03/02 00:48:03;;;;;;;22.77;14.80;;;3.20;99.90;;;;;;5106862;28;20592;-77
2023/03/02 00:50:28;;;;;;;26.37;15.17;;;3.20;99.90;;;;;;5107242;28;20775;-78
2023/03/02 00:52:54;;;;;;;25.87;14.43;;;3.20;99.90;;;;;;5093615;28;20180;-76
2023/03/02 00:55:20;;;;;;;26.03;15.70;;;3.20;99.90;;;;;;5110564;28;20210;-75
2023/03/02 00:57:53;;;;;;;24.37;14.63;;;3.20;99.90;;;;;;5102410;28;20202;-77
2023/03/02 01:00:20;;;;;;;23.57;14.57;;;3.10;99.90;;;;;;5106381;28;20733;-77
2023/03/02 01:02:46;;;;;;;21.97;13.47;;;3.10;99.90;;;;;;5108981;28;20212;-77
2023/03/02 01:05:12;;;;;;;24.37;13.33;;;3.10;99.90;;;;;;5110433;28;20178;-76
2023/03/02 01:07:37;;;;;;;25.23;14.63;;;3.10;99.90;;;;;;5104720;28;20170;-78
2023/03/02 01:10:03;;;;;;;20.57;13.20;;;3.00;99.90;;;;;;5106258;28;20568;-78
2023/03/02 01:12:30;;;;;;;21.53;12.43;;;3.00;99.90;;;;;;5089646;28;20204;-75
2023/03/02 01:14:56;;;;;;;20.83;12.50;;;3.00;99.90;;;;;;5110285;28;20206;-76
2023/03/02 01:17:22;;;;;;;20.80;13.37;;;3.00;99.90;;;;;;5109670;28;20652;-77
2023/03/02 01:19:47;;;;;;;22.83;12.37;;;3.10;99.90;;;;;;5104056;28;20200;-77
2023/03/02 01:22:13;;;;;;;23.27;13.13;;;3.10;99.90;;;;;;5108563;28;20200;-76
2023/03/02 01:24:38;;;;;;;21.27;12.70;;;3.10;99.90;;;;;;5109043;28;20201;-76
2023/03/02 01:27:04;;;;;;;20.27;12.10;;;3.10;99.90;;;;;;5110898;28;20668;-77
2023/03/02 01:29:30;;;;;;;21.27;12.23;;;3.10;99.90;;;;;;5103823;28;20842;-78
2023/03/02 01:31:56;;;;;;;19.37;11.00;;;3.10;99.90;;;;;;5106352;28;20721;-77
2023/03/02 01:34:21;;;;;;;19.27;11.67;;;3.00;99.90;;;;;;5106669;28;20212;-76
2023/03/02 01:36:47;;;;;;;22.77;11.33;;;3.00;99.90;;;;;;5092271;28;20208;-75
2023/03/02 01:39:16;;;;;;;16.33;10.67;;;3.00;99.90;;;;;;5106876;28;20210;-75
2023/03/02 01:45:05;;;;;;;21.33;12.10;;;3.00;99.90;;;;;;5106622;28;20698;-78
2023/03/02 01:47:38;;;;;;;20.13;11.10;;;3.00;99.90;;;;;;5109544;28;20608;-77
2023/03/02 01:50:25;;;;;;;17.10;10.90;;;3.00;99.90;;;;;;5106756;28;20189;-77
2023/03/02 01:52:53;;;;;;;18.50;10.93;;;2.90;99.90;;;;;;5103513;28;20262;-78
2023/03/02 01:55:24;;;;;;;20.00;10.97;;;2.90;99.90;;;;;;5113135;28;20212;-75
2023/03/02 01:57:55;;;;;;;21.27;11.33;;;2.90;99.90;;;;;;5113066;28;20270;-76
2023/03/02 02:00:28;;;;;;;17.47;11.40;;;2.90;99.90;;;;;;5113625;28;20292;-77
2023/03/02 02:03:07;;;;;;;23.00;12.00;;;2.90;99.90;;;;;;5107372;28;20198;-74
2023/03/02 02:05:38;;;;;;;18.83;11.93;;;2.90;99.90;;;;;;5114336;28;20206;-76
2023/03/02 02:08:05;;;;;;;20.73;12.07;;;2.80;99.90;;;;;;5112542;28;20950;-77
2023/03/02 02:10:32;;;;;;;19.93;11.30;;;2.80;99.90;;;;;;5112718;28;20330;-77
2023/03/02 02:12:58;;;;;;;19.77;11.50;;;2.80;99.90;;;;;;5094076;28;20211;-77
2023/03/02 02:15:23;;;;;;;21.80;10.73;;;2.80;99.90;;;;;;5108655;28;20217;-76
2023/03/02 02:17:53;;;;;;;20.63;10.97;;;2.80;99.90;;;;;;5110904;28;20660;-77
2023/03/02 02:20:27;;;;;;;19.03;11.07;;;2.80;99.90;;;;;;5109264;28;20220;-75
2023/03/02 02:23:11;;;;;;;19.83;11.10;;;2.80;99.90;;;;;;5110623;28;20174;-75
2023/03/02 02:25:51;;;;;;;21.70;11.73;;;2.80;99.90;;;;;;5108216;28;20217;-77
2023/03/02 02:28:27;;;;;;;16.80;10.93;;;2.70;99.90;;;;;;5113681;28;20287;-77
2023/03/02 02:31:19;;;;;;;20.77;11.60;;;2.60;99.90;;;;;;5109792;28;20205;-76
2023/03/02 02:33:50;;;;;;;18.77;11.73;;;2.60;99.90;;;;;;5106828;28;20205;-77
2023/03/02 02:36:24;;;;;;;17.80;11.40;;;2.60;99.90;;;;;;5109382;28;20205;-78
2023/03/02 02:38:53;;;;;;;24.43;10.77;;;2.60;99.90;;;;;;5109792;28;20217;-77
2023/03/02 02:41:27;;;;;;;21.40;12.23;;;2.60;99.90;;;;;;5113417;28;20564;-77
2023/03/02 02:43:54;;;;;;;19.40;10.80;;;2.50;99.90;;;;;;5108213;28;20170;-76
2023/03/02 02:46:20;;;;;;;19.27;11.20;;;2.50;99.90;;;;;;5111063;28;20748;-78
2023/03/02 02:48:45;;;;;;;20.67;11.73;;;2.40;99.90;;;;;;5108308;28;20205;-78
2023/03/02 02:51:19;;;;;;;19.07;11.33;;;2.40;99.90;;;;;;5112006;28;20635;-78
2023/03/02 02:54:00;;;;;;;19.07;10.23;;;2.40;99.90;;;;;;5113015;28;20209;-77
2023/03/02 02:56:32;;;;;;;18.83;11.60;;;2.40;99.90;;;;;;5112353;28;20213;-78
2023/03/02 02:59:12;;;;;;;19.70;11.00;;;2.40;99.90;;;;;;5111200;28;20201;-77
2023/03/02 03:01:38;;;;;;;18.60;12.40;;;2.40;99.90;;;;;;5107690;28;20687;-76
2023/03/02 03:04:05;;;;;;;21.77;11.80;;;2.30;99.90;;;;;;5102493;28;20206;-76
2023/03/02 03:06:40;;;;;;;21.33;10.70;;;2.30;99.90;;;;;;5105147;28;20237;-76
2023/03/02 03:09:08;;;;;;;22.60;11.70;;;2.30;99.90;;;;;;5105248;28;20212;-76
2023/03/02 03:11:39;;;;;;;21.80;11.87;;;2.30;99.90;;;;;;5109212;28;20240;-76
2023/03/02 03:14:14;;;;;;;21.83;11.73;;;2.20;99.90;;;;;;5108442;28;20183;-77
2023/03/02 03:16:44;;;;;;;18.83;11.73;;;2.20;99.90;;;;;;5103756;28;20192;-77
2023/03/02 03:19:25;;;;;;;18.93;11.07;;;2.30;99.90;;;;;;5104580;28;20215;-76
2023/03/02 03:21:54;;;;;;;18.73;11.50;;;2.20;99.90;;;;;;5109066;28;20229;-77
2023/03/02 03:24:20;;;;;;;19.73;12.47;;;2.10;99.90;;;;;;5112032;28;20680;-76
2023/03/02 03:26:46;;;;;;;19.77;12.37;;;2.10;99.90;;;;;;5101817;28;20266;-77
2023/03/02 03:29:13;;;;;;;25.60;11.83;;;2.10;99.90;;;;;;5109811;28;20242;-77
2023/03/02 03:31:39;;;;;;;19.87;10.37;;;2.20;99.90;;;;;;5109015;28;20288;-77
2023/03/02 03:34:05;;;;;;;19.60;11.17;;;2.10;99.90;;;;;;5110262;28;20323;-77
2023/03/02 03:36:32;;;;;;;21.63;12.17;;;2.20;99.90;;;;;;5103326;28;20213;-77
2023/03/02 03:38:59;;;;;;;18.50;11.20;;;2.10;99.90;;;;;;5104813;28;20217;-76
2023/03/02 03:41:25;;;;;;;21.10;11.73;;;2.00;99.90;;;;;;5107726;28;20224;-75
2023/03/02 03:43:51;;;;;;;20.80;11.07;;;2.00;99.90;;;;;;5110621;28;20543;-77
2023/03/02 03:46:17;;;;;;;16.60;10.47;;;2.00;99.90;;;;;;5062161;22;20238;-79
2023/03/02 03:48:43;;;;;;;18.37;10.80;;;1.90;99.90;;;;;;5023956;28;20215;-77
2023/03/02 03:51:09;;;;;;;20.57;11.50;;;1.90;99.90;;;;;;5043161;28;20207;-74
2023/03/02 03:53:35;;;;;;;20.40;11.80;;;1.90;99.90;;;;;;5047207;28;20212;-77
2023/03/02 03:56:02;;;;;;;16.07;10.10;;;1.80;99.90;;;;;;5031837;28;20222;-77
2023/03/02 03:58:30;;;;;;;20.33;11.17;;;1.90;99.90;;;;;;5019901;28;20188;-78
2023/03/02 04:00:56;;;;;;;17.10;9.83;;;1.80;99.90;;;;;;5036973;28;20203;-77
2023/03/02 04:03:22;;;;;;;18.00;11.37;;;1.90;99.90;;;;;;5043351;28;20212;-77
2023/03/02 04:05:48;;;;;;;18.57;11.07;;;1.90;99.90;;;;;;5024187;28;20207;-77
2023/03/02 04:08:14;;;;;;;19.77;11.03;;;1.70;99.90;;;;;;5039561;28;20611;-75
2023/03/02 04:10:40;;;;;;;18.93;10.87;;;1.70;99.90;;;;;;5044823;28;20258;-77
2023/03/02 04:13:06;;;;;;;18.17;10.83;;;1.70;99.90;;;;;;5028600;28;20204;-76
2023/03/02 04:15:32;;;;;;;19.40;11.40;;;1.70;99.90;;;;;;5025196;28;20216;-77
2023/03/02 04:17:58;;;;;;;19.57;12.17;;;1.80;99.90;;;;;;5042992;28;20281;-75
2023/03/02 04:20:24;;;;;;;18.50;11.83;;;1.70;99.90;;;;;;5044475;28;20219;-75
2023/03/02 04:22:52;;;;;;;18.60;11.67;;;1.70;99.90;;;;;;5021714;28;20187;-76
2023/03/02 04:25:21;;;;;;;21.30;12.20;;;1.80;99.90;;;;;;5037134;28;20300;-78
2023/03/02 04:27:48;;;;;;;22.73;12.20;;;1.70;99.90;;;;;;5030574;28;20287;-75
2023/03/02 04:30:15;;;;;;;20.83;11.90;;;1.70;99.90;;;;;;5039290;28;20203;-77
2023/03/02 04:32:42;;;;;;;20.83;11.17;;;1.70;99.90;;;;;;5020830;28;20296;-74
2023/03/02 04:35:09;;;;;;;22.37;11.80;;;1.70;99.90;;;;;;5043470;28;20703;-77
2023/03/02 04:37:35;;;;;;;20.23;11.57;;;1.70;99.90;;;;;;5045061;28;20168;-77
2023/03/02 04:40:01;;;;;;;21.23;12.10;;;1.70;99.90;;;;;;5034856;28;20223;-77
2023/03/02 04:42:27;;;;;;;22.40;12.20;;;1.70;99.90;;;;;;5029602;28;20205;-75
2023/03/02 04:44:52;;;;;;;20.30;11.50;;;1.70;99.90;;;;;;5040297;28;20237;-73
2023/03/02 04:47:18;;;;;;;22.10;11.80;;;1.60;99.90;;;;;;5041100;28;20191;-75
2023/03/02 04:49:43;;;;;;;22.90;12.40;;;1.60;99.90;;;;;;5044060;28;20203;-77
2023/03/02 04:52:09;;;;;;;25.70;11.93;;;1.70;99.90;;;;;;5024780;28;20205;-77
2023/03/02 04:54:35;;;;;;;23.63;12.93;;;1.70;99.90;;;;;;5025789;28;20300;-77
2023/03/02 04:57:00;;;;;;;23.57;12.47;;;1.60;99.90;;;;;;5043760;28;20234;-75
2023/03/02 04:59:28;;;;;;;24.55;13.50;;;1.60;99.90;;;;;;5038523;28;21129;-76
2023/03/02 05:01:58;;;;;;;22.23;12.33;;;1.60;99.90;;;;;;5040505;28;20271;-76
2023/03/02 05:04:24;;;;;;;21.10;12.90;;;1.60;99.90;;;;;;5023062;28;20286;-77
2023/03/02 05:06:50;;;;;;;22.90;12.80;;;1.50;99.90;;;;;;5037613;28;20293;-75
2023/03/02 05:09:15;;;;;;;20.43;12.40;;;1.40;99.90;;;;;;5022207;28;20279;-77
2023/03/02 05:11:41;;;;;;;21.43;12.27;;;1.40;99.90;;;;;;5023987;28;20206;-77
2023/03/02 05:14:09;;;;;;;21.97;12.77;;;1.50;99.90;;;;;;5040161;28;20183;-76
2023/03/02 05:16:36;;;;;;;24.20;13.23;;;1.50;99.90;;;;;;5039218;28;20705;-77
2023/03/02 05:19:04;;;;;;;24.57;13.07;;;1.50;99.90;;;;;;5041096;28;20278;-76
2023/03/02 05:21:29;;;;;;;28.67;14.07;;;1.30;99.90;;;;;;5027211;28;20205;-73
2023/03/02 05:23:55;;;;;;;21.83;12.93;;;1.40;99.90;;;;;;5038404;28;20265;-73
2023/03/02 05:26:21;;;;;;;24.33;13.57;;;1.40;99.90;;;;;;5025810;28;20292;-77
2023/03/02 05:28:47;;;;;;;26.77;13.27;;;1.30;99.90;;;;;;5039068;28;20667;-77
2023/03/02 05:31:22;;;;;;;22.80;13.87;;;1.30;99.90;;;;;;5028114;28;20203;-77
2023/03/02 05:33:48;;;;;;;24.87;13.33;;;1.20;99.90;;;;;;5037752;28;20584;-77
2023/03/02 05:36:13;;;;;;;26.07;12.47;;;1.20;99.90;;;;;;5041127;28;20207;-76
2023/03/02 05:38:39;;;;;;;28.67;14.67;;;1.20;99.90;;;;;;5037751;28;20219;-77
2023/03/02 05:41:05;;;;;;;26.67;14.70;;;1.20;99.90;;;;;;5041402;28;20175;-77
2023/03/02 05:43:31;;;;;;;26.87;14.67;;;1.20;99.90;;;;;;5038152;28;20184;-74
2023/03/02 05:45:59;;;;;;;25.00;13.93;;;1.20;99.90;;;;;;5020466;28;20208;-77
2023/03/02 05:48:29;;;;;;;24.93;15.13;;;1.20;99.90;;;;;;5025336;28;20203;-75
2023/03/02 05:50:55;;;;;;;25.73;14.97;;;1.20;99.90;;;;;;5019530;28;20199;-77
2023/03/02 05:53:21;;;;;;;23.70;14.10;;;1.20;99.90;;;;;;5043256;28;20713;-78
2023/03/02 05:55:47;;;;;;;31.67;15.90;;;1.20;99.90;;;;;;5021681;28;20209;-77
2023/03/02 05:58:16;;;;;;;26.87;15.53;;;1.20;99.90;;;;;;5040799;28;20197;-76
2023/03/02 06:00:43;;;;;;;25.27;14.37;;;1.20;99.90;;;;;;5025091;28;20278;-77
2023/03/02 06:03:08;;;;;;;29.37;16.60;;;1.20;99.90;;;;;;5029435;28;20207;-77
2023/03/02 06:05:35;;;;;;;28.37;15.57;;;1.10;99.90;;;;;;5017265;28;20292;-78
2023/03/02 06:08:01;;;;;;;29.73;15.43;;;1.20;99.90;;;;;;5038857;28;20191;-78
2023/03/02 06:10:27;;;;;;;28.80;15.97;;;1.30;99.90;;;;;;5038080;28;20176;-78
2023/03/02 06:12:52;;;;;;;30.77;16.07;;;1.40;99.90;;;;;;5039664;28;20202;-74
2023/03/02 06:15:18;;;;;;;28.77;15.30;;;1.50;99.90;;;;;;5039116;28;20238;-76
2023/03/02 06:17:44;;;;;;;31.20;15.93;;;1.60;99.90;;;;;;5024521;28;20695;-78
2023/03/02 06:20:11;;;;;;;29.40;16.67;;;1.50;99.90;;;;;;5027942;28;20736;-78
2023/03/02 06:22:45;;;;;;;28.87;15.80;;;1.70;99.90;;;;;;5042140;28;20203;-78
2023/03/02 06:25:13;;;;;;;27.40;15.73;;;2.90;99.90;;;;;;5041633;28;20268;-78
2023/03/02 06:27:39;;;;;;;29.50;15.53;;;3.80;99.90;;;;;;5026235;28;20230;-76
2023/03/02 06:30:06;;;;;;;29.00;15.23;;;4.70;99.90;;;;;;5028660;28;21004;-76
2023/03/02 06:32:33;;;;;;;29.00;15.47;;;5.40;99.90;;;;;;5031795;28;20208;-77
2023/03/02 06:35:03;;;;;;;28.83;15.87;;;6.10;99.90;;;;;;5030710;28;20195;-76
2023/03/02 06:37:30;;;;;;;31.87;15.30;;;6.20;99.90;;;;;;5042922;28;20219;-79
2023/03/02 06:39:56;;;;;;;29.83;16.60;;;6.70;99.90;;;;;;5049935;28;20630;-76
2023/03/02 06:42:23;;;;;;;30.03;16.67;;;6.70;99.90;;;;;;5049263;28;20204;-75
2023/03/02 06:44:50;;;;;;;37.30;17.57;;;5.70;99.90;;;;;;5030828;28;20212;-74
2023/03/02 06:47:19;;;;;;;36.50;19.37;;;5.10;99.90;;;;;;5046425;28;20179;-76
2023/03/02 06:49:44;;;;;;;40.67;19.57;;;4.10;99.90;;;;;;5051020;28;20184;-76
2023/03/02 06:52:12;;;;;;;34.50;18.50;;;3.70;99.90;;;;;;5048850;28;20210;-76
2023/03/02 06:54:38;;;;;;;39.40;20.00;;;3.30;99.90;;;;;;5045369;28;20300;-77
2023/03/02 06:57:03;;;;;;;37.67;19.47;;;3.00;99.90;;;;;;5052771;28;20730;-78
2023/03/02 06:59:29;;;;;;;33.30;18.40;;;2.70;99.90;;;;;;5052325;28;20566;-79
2023/03/02 07:01:55;;;;;;;37.27;18.47;;;2.50;99.90;;;;;;5051022;28;20243;-75
2023/03/02 07:04:20;;;;;;;41.33;20.60;;;2.40;99.90;;;;;;5049648;28;20222;-77
2023/03/02 07:06:46;;;;;;;35.77;17.70;;;2.30;99.90;;;;;;5032705;28;20219;-77
2023/03/02 07:09:12;;;;;;;41.63;19.90;;;2.30;99.90;;;;;;5045073;28;20228;-77
2023/03/02 07:11:38;;;;;;;41.87;20.33;;;2.20;99.90;;;;;;5032598;28;20219;-77
2023/03/02 07:14:03;;;;;;;40.13;20.00;;;2.20;99.90;;;;;;5048783;28;20178;-76
2023/03/02 07:16:30;;;;;;;42.47;20.47;;;2.20;99.90;;;;;;5043012;28;20194;-77
2023/03/02 07:18:56;;;;;;;43.60;20.70;;;2.30;99.90;;;;;;5027218;28;20212;-76
2023/03/02 07:21:21;;;;;;;40.03;19.37;;;2.30;99.90;;;;;;5047231;28;20214;-76
2023/03/02 07:23:47;;;;;;;39.20;19.27;;;2.40;99.90;;;;;;5049109;28;20205;-75
2023/03/02 07:26:12;;;;;;;40.33;20.13;;;2.50;99.90;;;;;;5047400;28;20196;-77
2023/03/02 07:28:40;;;;;;;50.83;22.20;;;2.60;99.90;;;;;;5041265;28;20663;-75
2023/03/02 07:31:07;;;;;;;44.00;21.03;;;2.50;99.90;;;;;;5048012;28;20210;-77
2023/03/02 07:33:34;;;;;;;50.47;24.03;;;2.40;99.90;;;;;;5050374;28;20695;-77
2023/03/02 07:35:59;;;;;;;58.10;24.67;;;2.00;99.90;;;;;;5047852;28;20665;-77
2023/03/02 07:38:26;;;;;;;55.27;25.97;;;1.90;99.90;;;;;;5050568;28;20215;-78
2023/03/02 07:40:51;;;;;;;62.10;27.90;;;2.00;99.90;;;;;;5041369;28;20243;-77
2023/03/02 07:43:17;;;;;;;61.27;29.90;;;1.80;99.90;;;;;;5045781;28;20211;-78
2023/03/02 07:45:43;;;;;;;58.83;29.23;;;1.80;99.90;;;;;;5048725;28;20232;-77
2023/03/02 07:48:09;;;;;;;56.07;28.87;;;1.80;99.90;;;;;;5049177;28;20202;-77
2023/03/02 07:50:35;;;;;;;65.90;29.43;;;2.00;99.90;;;;;;5030058;28;20261;-77
2023/03/02 07:53:00;;;;;;;57.07;25.97;;;2.10;99.90;;;;;;5043672;28;20224;-73
2023/03/02 07:55:26;;;;;;;50.33;23.93;;;2.40;99.90;;;;;;5049305;28;20193;-77
2023/03/02 07:57:52;;;;;;;47.63;22.30;;;2.50;99.90;;;;;;5029781;28;20653;-76
2023/03/02 08:00:18;;;;;;;43.23;21.90;;;2.50;99.90;;;;;;5044599;28;20214;-76
2023/03/02 08:02:44;;;;;;;46.87;22.33;;;2.70;99.90;;;;;;5040892;28;20212;-75
2023/03/02 08:05:11;;;;;;;58.77;27.00;;;2.70;99.90;;;;;;5049998;28;20278;-74
2023/03/02 08:07:37;;;;;;;53.83;26.80;;;2.80;99.90;;;;;;5046394;28;20180;-77
2023/03/02 08:10:03;;;;;;;57.13;30.43;;;2.40;99.90;;;;;;5045385;28;20207;-78
2023/03/02 08:12:29;;;;;;;54.00;28.30;;;2.50;99.90;;;;;;5041676;28;20215;-77
2023/03/02 08:14:55;;;;;;;53.47;28.60;;;2.70;99.90;;;;;;5030753;28;20208;-77
2023/03/02 08:17:21;;;;;;;57.83;27.83;;;2.90;99.90;;;;;;5049112;28;20278;-76
2023/03/02 08:19:47;;;;;;;55.97;29.07;;;3.00;99.90;;;;;;5047217;28;20639;-75
2023/03/02 08:22:13;;;;;;;49.63;26.80;;;3.10;99.90;;;;;;5023396;28;20205;-77
2023/03/02 08:24:40;;;;;;;51.67;28.13;;;3.20;99.90;;;;;;5042750;28;20559;-76
2023/03/02 08:27:07;;;;;;;54.13;28.67;;;3.00;99.90;;;;;;5031041;28;20790;-77
2023/03/02 08:29:32;;;;;;;51.87;27.83;;;2.90;99.90;;;;;;5042936;28;20216;-76
2023/03/02 08:31:58;;;;;;;45.53;24.83;;;3.10;99.90;;;;;;5026017;28;20181;-76
2023/03/02 08:34:25;;;;;;;47.20;22.97;;;3.40;99.90;;;;;;5030682;28;20656;-76
2023/03/02 08:36:51;;;;;;;49.67;24.17;;;3.30;99.90;;;;;;5047068;28;20728;-77
2023/03/02 08:39:17;;;;;;;42.30;21.03;;;3.60;99.90;;;;;;5028924;28;20203;-77
2023/03/02 08:41:43;;;;;;;41.97;21.53;;;3.80;99.90;;;;;;5032538;28;20209;-77
2023/03/02 08:44:09;;;;;;;46.93;22.33;;;4.20;99.90;;;;;;5022533;28;20187;-76
2023/03/02 08:46:34;;;;;;;47.23;23.90;;;4.20;99.90;;;;;;5050071;28;20240;-75
2023/03/02 08:49:00;;;;;;;46.10;24.17;;;4.30;99.90;;;;;;5040244;28;20230;-76
2023/03/02 08:51:26;;;;;;;47.77;25.37;;;4.30;99.90;;;;;;5031772;28;20207;-77
2023/03/02 08:53:56;;;;;;;53.50;25.43;;;4.30;99.90;;;;;;5040909;28;20296;-76
2023/03/02 08:56:33;;;;;;;48.63;26.60;;;4.20;99.90;;;;;;5042794;28;20222;-77
2023/03/02 08:59:03;;;;;;;51.40;26.03;;;4.20;99.90;;;;;;5031984;28;20211;-77
2023/03/02 09:01:34;;;;;;;47.47;25.03;;;4.10;99.90;;;;;;5044911;28;20228;-73
2023/03/02 09:04:03;;;;;;;47.43;22.53;;;3.90;99.90;;;;;;5041506;28;20241;-78
2023/03/02 09:06:32;;;;;;;42.80;22.87;;;4.10;99.90;;;;;;5043626;28;20294;-77
2023/03/02 09:08:58;;;;;;;42.97;22.70;;;4.20;99.90;;;;;;5047175;28;20701;-77
2023/03/02 09:11:24;;;;;;;46.93;22.30;;;4.40;99.90;;;;;;5046838;28;20225;-77
2023/03/02 09:13:50;;;;;;;50.30;26.03;;;4.30;99.90;;;;;;5043057;28;20895;-77
2023/03/02 09:16:19;;;;;;;48.03;24.60;;;4.20;99.90;;;;;;5025933;28;20210;-77
2023/03/02 09:18:45;;;;;;;47.33;23.77;;;4.10;99.90;;;;;;5045374;28;20328;-76
2023/03/02 09:21:10;;;;;;;47.97;24.63;;;4.10;99.90;;;;;;5047073;28;20618;-76
2023/03/02 09:23:36;;;;;;;48.20;25.07;;;4.30;99.90;;;;;;5043707;28;20205;-77
2023/03/02 09:26:03;;;;;;;51.37;25.63;;;4.30;99.90;;;;;;5042771;28;20282;-74
2023/03/02 09:28:29;;;;;;;48.27;25.37;;;4.40;99.90;;;;;;5028354;28;20178;-77
2023/03/02 09:31:00;;;;;;;48.63;25.53;;;4.70;99.90;;;;;;5046638;28;20198;-77
2023/03/02 09:33:27;;;;;;;48.57;25.97;;;4.80;99.90;;;;;;5046031;28;20210;-77
2023/03/02 09:35:52;;;;;;;55.47;27.80;;;4.90;99.90;;;;;;5041584;28;20212;-72
2023/03/02 09:38:18;;;;;;;50.77;27.43;;;5.00;99.90;;;;;;5030362;28;20190;-77
2023/03/02 09:40:57;;;;;;;49.80;25.37;;;5.10;99.90;;;;;;5045280;28;20578;-73
2023/03/02 09:43:47;;;;;;;48.77;26.00;;;5.10;99.90;;;;;;5047700;28;20230;-72
2023/03/02 09:46:21;;;;;;;51.80;25.93;;;5.20;99.90;;;;;;5023169;28;20733;-75
2023/03/02 09:49:11;;;;;;;50.30;26.83;;;5.20;99.90;;;;;;5039400;28;20586;-75
2023/03/02 09:51:52;;;;;;;50.47;26.83;;;5.10;99.90;;;;;;5049693;28;20256;-76
2023/03/02 09:54:23;;;;;;;41.50;24.77;;;5.10;99.90;;;;;;5032672;28;20722;-77
2023/03/02 09:56:53;;;;;;;46.97;25.40;;;5.10;99.90;;;;;;5028295;28;20231;-75
2023/03/02 09:59:28;;;;;;;43.10;24.83;;;5.00;99.90;;;;;;5043532;28;20261;-76
2023/03/02 10:02:23;;;;;;;43.87;24.57;;;5.10;99.90;;;;;;5048663;28;20184;-72
2023/03/02 10:04:53;;;;;;;44.20;25.07;;;5.00;99.90;;;;;;5012303;28;20297;-76
2023/03/02 10:07:25;;;;;;;43.23;22.60;;;4.90;99.90;;;;;;5024400;28;20258;-76
2023/03/02 10:09:51;;;;;;;48.07;25.73;;;5.00;99.90;;;;;;5022307;28;20311;-76
2023/03/02 10:12:41;;;;;;;45.57;24.97;;;5.10;99.90;;;;;;5032071;28;20278;-73
2023/03/02 10:15:15;;;;;;;44.23;24.83;;;5.20;99.90;;;;;;5049934;28;20210;-77
2023/03/02 10:18:10;;;;;;;43.57;22.50;;;5.10;99.90;;;;;;5033655;28;20562;-76
2023/03/02 10:21:07;;;;;;;34.77;19.70;;;5.00;99.90;;;;;;5042963;28;20224;-76
2023/03/02 10:23:56;;;;;;;34.67;19.20;;;5.20;99.90;;;;;;5053488;28;20215;-75
2023/03/02 10:26:42;;;;;;;35.67;21.17;;;5.30;99.90;;;;;;5032577;28;20705;-77
2023/03/02 10:29:26;;;;;;;38.53;20.40;;;5.20;99.90;;;;;;5051737;28;20280;-76
2023/03/02 10:32:08;;;;;;;38.22;23.88;;;5.30;99.90;;;;;;5044507;28;20964;-74
2023/03/02 10:34:36;;;;;;;33.50;19.77;;;5.50;99.90;;;;;;5055618;28;20207;-74
2023/03/02 10:37:02;;;;;;;29.80;17.87;;;5.80;99.90;;;;;;5051186;28;20219;-73
2023/03/02 10:39:28;;;;;;;32.53;16.83;;;6.00;99.90;;;;;;5049254;28;20298;-75
2023/03/02 10:42:05;;;;;;;32.37;18.37;;;6.10;99.90;;;;;;5046765;28;20638;-74
2023/03/02 10:44:37;;;;;;;31.60;17.23;;;6.40;99.90;;;;;;5036462;28;20303;-77
2023/03/02 10:47:04;;;;;;;33.20;19.10;;;6.70;99.90;;;;;;5035688;28;20211;-75
2023/03/02 10:49:35;;;;;;;32.40;19.27;;;6.70;99.90;;;;;;5054509;28;20542;-76
2023/03/02 10:52:04;;;;;;;40.33;22.90;;;6.80;99.90;;;;;;5029302;28;20228;-74
2023/03/02 10:54:33;;;;;;;36.33;22.87;;;6.80;99.90;;;;;;5036848;28;20635;-74
2023/03/02 10:57:04;;;;;;;40.90;23.63;;;6.60;99.90;;;;;;5061756;28;20246;-73
2023/03/02 10:59:44;;;;;;;35.50;20.53;;;6.60;99.90;;;;;;5038926;28;20252;-74
2023/03/02 11:02:15;;;;;;;31.70;19.33;;;7.00;99.90;;;;;;5041378;28;20187;-72
2023/03/02 11:04:40;;;;;;;32.47;20.00;;;7.10;99.90;;;;;;5034813;28;20253;-74
2023/03/02 11:07:08;;;;;;;30.77;19.50;;;6.90;99.90;;;;;;5033342;28;20216;-75
2023/03/02 11:09:33;;;;;;;32.20;19.30;;;7.00;99.90;;;;;;5046365;28;20218;-72
2023/03/02 11:12:00;;;;;;;41.43;24.93;;;6.80;99.90;;;;;;5044071;28;20303;-75
2023/03/02 11:14:25;;;;;;;26.60;15.97;;;6.80;99.90;;;;;;5034404;28;20212;-74
2023/03/02 11:16:52;;;;;;;25.00;14.93;;;6.80;99.90;;;;;;5034202;28;20202;-75
2023/03/02 11:19:39;;;;;;;29.57;16.87;;;6.60;99.90;;;;;;5031049;28;20763;-74
2023/03/02 11:22:37;;;;;;;24.33;14.60;;;6.70;99.90;;;;;;5027178;28;20208;-75
2023/03/02 11:25:11;;;;;;;28.43;16.67;;;6.80;99.90;;;;;;5041100;28;20608;-74
2023/03/02 11:27:40;;;;;;;30.00;18.97;;;6.90;99.90;;;;;;5050836;28;20214;-74
2023/03/02 11:30:15;;;;;;;35.03;20.23;;;6.70;99.90;;;;;;5047036;28;20215;-75
2023/03/02 11:33:13;;;;;;;34.20;19.37;;;6.40;99.90;;;;;;5027478;28;20211;-74
2023/03/02 11:35:56;;;;;;;29.70;17.40;;;6.40;99.90;;;;;;5032265;28;20219;-72
2023/03/02 11:38:22;;;;;;;24.57;15.23;;;6.50;99.90;;;;;;5047393;28;20637;-74
2023/03/02 11:40:56;;;;;;;26.63;15.63;;;6.50;99.90;;;;;;5047534;28;20286;-75
2023/03/02 11:43:22;;;;;;;26.03;15.30;;;6.70;99.90;;;;;;5020849;28;20215;-74
2023/03/02 11:45:55;;;;;;;26.97;15.43;;;6.50;99.90;;;;;;5040546;28;20220;-73
2023/03/02 11:48:30;;;;;;;25.60;16.47;;;6.50;99.90;;;;;;5047871;28;20235;-75
2023/03/02 11:51:01;;;;;;;25.93;13.90;;;6.40;99.90;;;;;;5047041;28;20299;-74
2023/03/02 11:53:38;;;;;;;26.73;15.87;;;6.50;99.90;;;;;;5047867;28;20295;-74
2023/03/02 11:56:04;;;;;;;29.97;16.87;;;6.80;99.90;;;;;;5024813;28;20200;-74
2023/03/02 11:58:31;;;;;;;30.73;17.67;;;6.70;99.90;;;;;;5047444;28;20246;-72
2023/03/02 12:00:58;;;;;;;26.97;16.70;;;6.60;99.90;;;;;;5031305;28;20244;-73
2023/03/02 12:03:30;;;;;;;25.90;14.80;;;6.70;99.90;;;;;;5047050;28;20211;-73
2023/03/02 12:06:03;;;;;;;25.03;15.97;;;6.70;99.90;;;;;;5041880;28;20211;-75
2023/03/02 12:08:41;;;;;;;29.83;16.63;;;6.70;99.90;;;;;;5025005;28;20207;-74
2023/03/02 12:11:16;;;;;;;31.53;16.70;;;6.60;99.90;;;;;;5030619;28;20603;-74
2023/03/02 12:13:56;;;;;;;25.13;14.80;;;6.50;99.90;;;;;;5045180;28;20179;-74
2023/03/02 12:16:33;;;;;;;25.40;15.73;;;6.30;99.90;;;;;;5026345;28;20207;-75
2023/03/02 12:19:15;;;;;;;26.70;14.70;;;6.20;99.90;;;;;;5039802;28;20246;-75
2023/03/02 12:21:59;;;;;;;28.97;15.33;;;6.20;99.90;;;;;;5049103;28;20218;-75
2023/03/02 12:24:28;;;;;;;26.07;15.13;;;6.20;99.90;;;;;;5043496;28;20219;-74
2023/03/02 12:27:06;;;;;;;26.20;14.40;;;6.20;99.90;;;;;;5041958;28;20290;-73
2023/03/02 12:29:45;;;;;;;28.57;14.63;;;6.10;99.90;;;;;;5042412;28;20211;-74
2023/03/02 12:32:17;;;;;;;29.03;16.43;;;6.30;99.90;;;;;;5047746;28;20226;-75
2023/03/02 12:35:07;;;;;;;32.63;16.43;;;6.20;99.90;;;;;;5044991;28;20270;-74
2023/03/02 12:37:48;;;;;;;30.03;16.93;;;6.50;99.90;;;;;;5042897;28;20287;-74
2023/03/02 12:40:34;;;;;;;28.53;15.93;;;6.40;99.90;;;;;;5041916;28;20909;-75
2023/03/02 12:43:30;;;;;;;27.97;16.07;;;6.50;99.90;;;;;;5046273;28;20689;-74
2023/03/02 12:46:47;;;;;;;23.37;14.50;;;6.40;99.90;;;;;;5025319;28;20231;-75
2023/03/02 12:49:40;;;;;;;27.60;14.77;;;6.60;99.90;;;;;;4991694;28;20274;-74
2023/03/02 12:52:20;;;;;;;27.27;14.43;;;6.50;99.90;;;;;;5043443;28;20294;-73